METAR AND TAF INFORMATION
METAR FOR EDDT
ADDS - METARS form results

(1617 UTC 25 May 2018)
Data provider http://aviationweather.gov/adds/metars/
 
METAR text: EDDT 251550Z VRB06KT CAVOK 26/07 Q1019 NOSIG
Conditions at: EDDT (BERLIN/TEGEL (FA, DE) observed 1550 UTC 25 May 2018
Temperature: 26.0°C (79°F)
Dewpoint: 7.0°C (45°F) [RH = 30%]
Pressure (altimeter): 30.09 inches Hg (1019.0 mb)
Winds: variable direction winds at 7 MPH (6 knots; 3.1 m/s)
Visibility: 6 or more miles (10+ km)
Ceiling: ceiling and visibility are OK
Clouds: unknown
Weather: no significant weather observed at this time

METAR text: EDDT 251520Z 03006KT 340V140 CAVOK 26/07 Q1019 NOSIG
Conditions at: EDDT (BERLIN/TEGEL (FA, DE) observed 1520 UTC 25 May 2018
Temperature: 26.0°C (79°F)
Dewpoint: 7.0°C (45°F) [RH = 30%]
Pressure (altimeter): 30.09 inches Hg (1019.0 mb)
Winds: from the NNE (30 degrees) at 7 MPH (6 knots; 3.1 m/s)
Visibility: 6 or more miles (10+ km)
Ceiling: ceiling and visibility are OK
Clouds: unknown
Weather: no significant weather observed at this time

Forecast for: EDDT (BERLIN/TEGEL (FA, DE)
Text: TAF EDDT 251100Z 2512/2612 06010KT CAVOK
Forecast period: 1200 to 2000 UTC 25 May 2018
Forecast type: FROM: standard forecast or significant change
Winds: from the ENE (60 degrees) at 12 MPH (10 knots; 5.2 m/s)
Visibility: 6 or more miles (10+ km)
Clouds: not forecast
Weather: NSW  (no significant weather)
Text: BECMG 2520/2522 04005KT
Forecast period: 2000 UTC 25 May 2018 to 1200 UTC 26 May 2018
Forecast type: BECOMING: Conditions expected to become as follows by 2200 UTC 25 May 2018
Winds: from the NE (40 degrees) at 6 MPH (5 knots; 2.6 m/s)
Visibility: 6 or more miles (10+ km)
Weather: NSW  (no significant weather)

 AIRPORT MAP

 RUNWAY INFORMATION
Runway 08L Runway length 9918 ft Runway width 151 ft
Runway elevation 110 ft Runway displaced threshold 0 ft Runway heading 81
Runway 26R Runway length 9918 ft Runway width 151 ft
Runway elevation 117 ft Runway displaced threshold 0 ft Runway heading 261
Runway 08R Runway length 7966 ft Runway width 151 ft
Runway elevation 109 ft Runway displaced threshold 341 ft Runway heading 81
Runway 26L Runway length 7966 ft Runway width 151 ft
Runway elevation 122 ft Runway displaced threshold 722 ft Runway heading 261

 AIRPORT FREQUENCIES
Type AFIS Name BERLIN INF Frequency 132.65 MHZ
Type APP Name BERLIN ARR Frequency 119.625 MHZ
Type ATIS Name ATIS Frequency 125.9 MHZ
Type DEP Name BERLIN DEP Frequency 120.625 MHZ
Type DIR Name BERLIN DIR Frequency 136.1 MHZ
Type GND Name GND Frequency 121.925 MHZ
Type RMP Name BERLIN MIL Frequency 136 MHZ
Type TWR Name TWR Frequency 124.525 MHZ

 AIRPORT NEAR NAVIGATION AIDS
Type NDB Name Tegel East Frequency 321 KHZ
Type NDB Name Tegel West Frequency 392 KHZ
Type VOR-DME Name Tegel Frequency 112300 KHZ